sensor_id;sensor_type;location;lat;lon;timestamp;temperature;humidity
9223;DHT22;7557;51.698;3.942;2023-07-22T00:01:58;18.50;99.90
9223;DHT22;7557;51.698;3.942;2023-07-22T00:04:25;18.50;99.90
9223;DHT22;7557;51.698;3.942;2023-07-22T00:06:53;18.50;99.90
9223;DHT22;7557;51.698;3.942;2023-07-22T00:09:20;18.50;99.90
9223;DHT22;7557;51.698;3.942;2023-07-22T00:11:51;18.60;99.90
9223;DHT22;7557;51.698;3.942;2023-07-22T00:14:18;18.60;99.90
9223;DHT22;7557;51.698;3.942;2023-07-22T00:16:45;18.60;99.90
9223;DHT22;7557;51.698;3.942;2023-07-22T00:19:13;18.60;99.90
9223;DHT22;7557;51.698;3.942;2023-07-22T00:21:41;18.60;99.90
9223;DHT22;7557;51.698;3.942;2023-07-22T00:24:08;18.60;99.90
9223;DHT22;7557;51.698;3.942;2023-07-22T00:26:36;18.60;99.90
9223;DHT22;7557;51.698;3.942;2023-07-22T00:29:05;18.50;99.90
9223;DHT22;7557;51.698;3.942;2023-07-22T00:31:33;18.50;99.90
9223;DHT22;7557;51.698;3.942;2023-07-22T00:34:00;18.50;99.90
9223;DHT22;7557;51.698;3.942;2023-07-22T00:36:28;18.40;99.90
9223;DHT22;7557;51.698;3.942;2023-07-22T00:38:55;18.40;99.90
9223;DHT22;7557;51.698;3.942;2023-07-22T00:41:23;18.40;99.90
9223;DHT22;7557;51.698;3.942;2023-07-22T00:43:51;18.40;99.90
9223;DHT22;7557;51.698;3.942;2023-07-22T00:49:43;18.40;99.90
9223;DHT22;7557;51.698;3.942;2023-07-22T00:52:10;18.30;99.90
9223;DHT22;7557;51.698;3.942;2023-07-22T00:54:38;18.30;99.90
9223;DHT22;7557;51.698;3.942;2023-07-22T00:57:07;18.30;99.90
9223;DHT22;7557;51.698;3.942;2023-07-22T00:59:34;18.30;99.90
9223;DHT22;7557;51.698;3.942;2023-07-22T01:02:01;18.30;99.90
9223;DHT22;7557;51.698;3.942;2023-07-22T01:04:29;18.30;99.90
9223;DHT22;7557;51.698;3.942;2023-07-22T01:07:01;18.30;99.90
9223;DHT22;7557;51.698;3.942;2023-07-22T01:09:35;18.30;99.90
9223;DHT22;7557;51.698;3.942;2023-07-22T01:12:03;18.30;99.90
9223;DHT22;7557;51.698;3.942;2023-07-22T01:14:32;18.20;99.90
9223;DHT22;7557;51.698;3.942;2023-07-22T01:17:00;18.20;99.90
9223;DHT22;7557;51.698;3.942;2023-07-22T01:19:28;18.20;99.90
9223;DHT22;7557;51.698;3.942;2023-07-22T01:21:57;18.30;99.90
9223;DHT22;7557;51.698;3.942;2023-07-22T01:24:26;18.30;99.90
9223;DHT22;7557;51.698;3.942;2023-07-22T01:26:53;18.20;99.90
9223;DHT22;7557;51.698;3.942;2023-07-22T01:29:22;18.20;99.90
9223;DHT22;7557;51.698;3.942;2023-07-22T01:31:51;18.20;99.90
9223;DHT22;7557;51.698;3.942;2023-07-22T01:34:18;18.20;99.90
9223;DHT22;7557;51.698;3.942;2023-07-22T01:36:46;18.20;99.90
9223;DHT22;7557;51.698;3.942;2023-07-22T01:39:14;18.20;99.90
9223;DHT22;7557;51.698;3.942;2023-07-22T01:41:43;18.20;99.90
9223;DHT22;7557;51.698;3.942;2023-07-22T01:44:10;18.20;99.90
9223;DHT22;7557;51.698;3.942;2023-07-22T01:46:37;18.20;99.90
9223;DHT22;7557;51.698;3.942;2023-07-22T01:49:06;18.20;99.90
9223;DHT22;7557;51.698;3.942;2023-07-22T01:51:34;18.20;99.90
9223;DHT22;7557;51.698;3.942;2023-07-22T01:54:03;18.20;99.90
9223;DHT22;7557;51.698;3.942;2023-07-22T01:56:30;18.20;99.90
9223;DHT22;7557;51.698;3.942;2023-07-22T01:58:59;18.20;99.90
9223;DHT22;7557;51.698;3.942;2023-07-22T02:01:27;18.20;99.90
9223;DHT22;7557;51.698;3.942;2023-07-22T02:03:54;18.20;99.90
9223;DHT22;7557;51.698;3.942;2023-07-22T02:06:22;18.20;99.90
9223;DHT22;7557;51.698;3.942;2023-07-22T02:08:49;18.20;99.90
9223;DHT22;7557;51.698;3.942;2023-07-22T02:11:17;18.20;99.90
9223;DHT22;7557;51.698;3.942;2023-07-22T02:13:44;18.20;99.90
9223;DHT22;7557;51.698;3.942;2023-07-22T02:16:13;18.20;99.90
9223;DHT22;7557;51.698;3.942;2023-07-22T02:18:40;18.20;99.90
9223;DHT22;7557;51.698;3.942;2023-07-22T02:21:07;18.20;99.90
9223;DHT22;7557;51.698;3.942;2023-07-22T02:23:34;18.20;99.90
9223;DHT22;7557;51.698;3.942;2023-07-22T02:26:02;18.20;99.90
9223;DHT22;7557;51.698;3.942;2023-07-22T02:28:29;18.20;99.90
9223;DHT22;7557;51.698;3.942;2023-07-22T02:31:01;18.20;99.90
9223;DHT22;7557;51.698;3.942;2023-07-22T02:33:32;18.20;99.90
9223;DHT22;7557;51.698;3.942;2023-07-22T02:36:00;18.20;99.90
9223;DHT22;7557;51.698;3.942;2023-07-22T02:38:27;18.20;99.90
9223;DHT22;7557;51.698;3.942;2023-07-22T02:40:54;18.20;99.90
9223;DHT22;7557;51.698;3.942;2023-07-22T02:43:21;18.10;99.90
9223;DHT22;7557;51.698;3.942;2023-07-22T02:45:49;18.10;99.90
9223;DHT22;7557;51.698;3.942;2023-07-22T02:48:16;18.00;99.90
9223;DHT22;7557;51.698;3.942;2023-07-22T02:50:45;18.00;99.90
9223;DHT22;7557;51.698;3.942;2023-07-22T02:53:12;18.00;99.90
9223;DHT22;7557;51.698;3.942;2023-07-22T02:55:40;17.90;99.90
9223;DHT22;7557;51.698;3.942;2023-07-22T02:58:07;17.90;99.90
9223;DHT22;7557;51.698;3.942;2023-07-22T03:00:34;17.90;99.90
9223;DHT22;7557;51.698;3.942;2023-07-22T03:03:01;17.80;99.90
9223;DHT22;7557;51.698;3.942;2023-07-22T03:05:31;17.80;99.90
9223;DHT22;7557;51.698;3.942;2023-07-22T03:08:01;17.80;99.90
9223;DHT22;7557;51.698;3.942;2023-07-22T03:10:28;17.80;99.90
9223;DHT22;7557;51.698;3.942;2023-07-22T03:12:56;17.80;99.90
9223;DHT22;7557;51.698;3.942;2023-07-22T03:15:24;17.70;99.90
9223;DHT22;7557;51.698;3.942;2023-07-22T03:17:52;17.70;99.90
9223;DHT22;7557;51.698;3.942;2023-07-22T03:20:19;17.70;99.90
9223;DHT22;7557;51.698;3.942;2023-07-22T03:22:47;17.70;99.90
9223;DHT22;7557;51.698;3.942;2023-07-22T03:25:16;17.70;99.90
9223;DHT22;7557;51.698;3.942;2023-07-22T03:27:45;17.60;99.90
9223;DHT22;7557;51.698;3.942;2023-07-22T03:30:14;17.60;99.90
9223;DHT22;7557;51.698;3.942;2023-07-22T03:32:42;17.60;99.90
9223;DHT22;7557;51.698;3.942;2023-07-22T03:35:10;17.60;99.90
9223;DHT22;7557;51.698;3.942;2023-07-22T03:37:37;17.60;99.90
9223;DHT22;7557;51.698;3.942;2023-07-22T03:40:09;17.60;99.90
9223;DHT22;7557;51.698;3.942;2023-07-22T03:42:45;17.50;99.90
9223;DHT22;7557;51.698;3.942;2023-07-22T03:45:12;17.50;99.90
9223;DHT22;7557;51.698;3.942;2023-07-22T03:47:40;17.50;99.90
9223;DHT22;7557;51.698;3.942;2023-07-22T03:50:10;17.50;99.90
9223;DHT22;7557;51.698;3.942;2023-07-22T03:52:38;17.50;99.90
9223;DHT22;7557;51.698;3.942;2023-07-22T03:55:06;17.50;99.90
9223;DHT22;7557;51.698;3.942;2023-07-22T03:57:33;17.50;99.90
9223;DHT22;7557;51.698;3.942;2023-07-22T04:00:03;17.50;99.90
9223;DHT22;7557;51.698;3.942;2023-07-22T04:02:31;17.40;99.90
9223;DHT22;7557;51.698;3.942;2023-07-22T04:04:58;17.40;99.90
9223;DHT22;7557;51.698;3.942;2023-07-22T04:07:26;17.40;99.90
9223;DHT22;7557;51.698;3.942;2023-07-22T04:09:53;17.40;99.90
9223;DHT22;7557;51.698;3.942;2023-07-22T04:12:20;17.40;99.90
9223;DHT22;7557;51.698;3.942;2023-07-22T04:14:48;17.40;99.90
9223;DHT22;7557;51.698;3.942;2023-07-22T04:17:16;17.40;99.90
9223;DHT22;7557;51.698;3.942;2023-07-22T04:19:44;17.40;99.90
9223;DHT22;7557;51.698;3.942;2023-07-22T04:22:11;17.40;99.90
9223;DHT22;7557;51.698;3.942;2023-07-22T04:24:39;17.30;99.90
9223;DHT22;7557;51.698;3.942;2023-07-22T04:27:06;17.40;99.90
9223;DHT22;7557;51.698;3.942;2023-07-22T04:29:35;17.40;99.90
9223;DHT22;7557;51.698;3.942;2023-07-22T04:32:03;17.40;99.90
9223;DHT22;7557;51.698;3.942;2023-07-22T04:34:32;17.40;99.90
9223;DHT22;7557;51.698;3.942;2023-07-22T04:37:00;17.40;99.90
9223;DHT22;7557;51.698;3.942;2023-07-22T04:39:27;17.40;99.90
9223;DHT22;7557;51.698;3.942;2023-07-22T04:41:55;17.50;99.90
9223;DHT22;7557;51.698;3.942;2023-07-22T04:44:22;17.50;99.90
9223;DHT22;7557;51.698;3.942;2023-07-22T04:46:50;17.50;99.90
9223;DHT22;7557;51.698;3.942;2023-07-22T04:49:17;17.50;99.90
9223;DHT22;7557;51.698;3.942;2023-07-22T04:51:46;17.50;99.90
9223;DHT22;7557;51.698;3.942;2023-07-22T04:54:14;17.60;99.90
9223;DHT22;7557;51.698;3.942;2023-07-22T04:56:41;17.60;99.90
9223;DHT22;7557;51.698;3.942;2023-07-22T04:59:09;17.60;99.90
9223;DHT22;7557;51.698;3.942;2023-07-22T05:01:36;17.60;99.90
9223;DHT22;7557;51.698;3.942;2023-07-22T05:04:04;17.70;99.90
9223;DHT22;7557;51.698;3.942;2023-07-22T05:06:32;17.70;99.90
9223;DHT22;7557;51.698;3.942;2023-07-22T05:09:03;17.70;99.90
9223;DHT22;7557;51.698;3.942;2023-07-22T05:11:31;17.80;99.90
9223;DHT22;7557;51.698;3.942;2023-07-22T05:13:58;17.80;99.90
9223;DHT22;7557;51.698;3.942;2023-07-22T05:16:25;17.80;99.90
9223;DHT22;7557;51.698;3.942;2023-07-22T05:18:53;17.90;99.90
9223;DHT22;7557;51.698;3.942;2023-07-22T05:21:20;17.90;99.90
9223;DHT22;7557;51.698;3.942;2023-07-22T05:23:47;17.90;99.90
9223;DHT22;7557;51.698;3.942;2023-07-22T05:26:16;17.90;99.90
9223;DHT22;7557;51.698;3.942;2023-07-22T05:28:44;17.90;99.90
9223;DHT22;7557;51.698;3.942;2023-07-22T05:31:11;17.90;99.90
9223;DHT22;7557;51.698;3.942;2023-07-22T05:33:39;17.90;99.90
9223;DHT22;7557;51.698;3.942;2023-07-22T05:36:06;17.90;99.90
9223;DHT22;7557;51.698;3.942;2023-07-22T05:38:34;17.90;99.90
9223;DHT22;7557;51.698;3.942;2023-07-22T05:41:01;18.00;99.90
9223;DHT22;7557;51.698;3.942;2023-07-22T05:43:31;18.00;99.90
9223;DHT22;7557;51.698;3.942;2023-07-22T05:45:58;18.00;99.90
9223;DHT22;7557;51.698;3.942;2023-07-22T05:48:26;18.00;99.90
9223;DHT22;7557;51.698;3.942;2023-07-22T05:50:53;18.00;99.90
9223;DHT22;7557;51.698;3.942;2023-07-22T05:53:22;18.00;99.90
9223;DHT22;7557;51.698;3.942;2023-07-22T05:55:50;18.10;99.90
9223;DHT22;7557;51.698;3.942;2023-07-22T05:58:17;18.10;99.90
9223;DHT22;7557;51.698;3.942;2023-07-22T06:00:46;18.20;99.90
9223;DHT22;7557;51.698;3.942;2023-07-22T06:03:15;18.20;99.90
9223;DHT22;7557;51.698;3.942;2023-07-22T06:05:42;18.30;99.90
9223;DHT22;7557;51.698;3.942;2023-07-22T06:08:09;18.40;99.90
9223;DHT22;7557;51.698;3.942;2023-07-22T06:10:37;18.40;99.90
9223;DHT22;7557;51.698;3.942;2023-07-22T06:13:04;18.50;99.90
9223;DHT22;7557;51.698;3.942;2023-07-22T06:15:32;18.50;99.90
9223;DHT22;7557;51.698;3.942;2023-07-22T06:18:02;18.50;99.90
9223;DHT22;7557;51.698;3.942;2023-07-22T06:20:33;18.50;99.90
9223;DHT22;7557;51.698;3.942;2023-07-22T06:23:01;18.50;99.90
9223;DHT22;7557;51.698;3.942;2023-07-22T06:25:28;18.50;99.90
9223;DHT22;7557;51.698;3.942;2023-07-22T06:27:56;18.50;99.90
9223;DHT22;7557;51.698;3.942;2023-07-22T06:30:23;18.50;99.90
9223;DHT22;7557;51.698;3.942;2023-07-22T06:32:51;18.50;99.90
9223;DHT22;7557;51.698;3.942;2023-07-22T06:35:20;18.60;99.90
9223;DHT22;7557;51.698;3.942;2023-07-22T06:37:47;18.70;99.90
9223;DHT22;7557;51.698;3.942;2023-07-22T06:40:15;18.80;99.90
9223;DHT22;7557;51.698;3.942;2023-07-22T06:42:42;18.90;99.90
9223;DHT22;7557;51.698;3.942;2023-07-22T06:45:10;19.00;99.90
9223;DHT22;7557;51.698;3.942;2023-07-22T06:47:37;19.20;99.90
9223;DHT22;7557;51.698;3.942;2023-07-22T06:50:06;19.30;99.90
9223;DHT22;7557;51.698;3.942;2023-07-22T06:52:35;19.40;99.90
9223;DHT22;7557;51.698;3.942;2023-07-22T06:55:02;19.40;99.90
9223;DHT22;7557;51.698;3.942;2023-07-22T06:57:29;19.40;99.90
9223;DHT22;7557;51.698;3.942;2023-07-22T06:59:57;19.50;99.90
9223;DHT22;7557;51.698;3.942;2023-07-22T07:02:24;19.50;99.90
9223;DHT22;7557;51.698;3.942;2023-07-22T07:04:51;19.60;99.90
9223;DHT22;7557;51.698;3.942;2023-07-22T07:07:19;19.60;99.90
9223;DHT22;7557;51.698;3.942;2023-07-22T07:09:48;19.60;99.90
9223;DHT22;7557;51.698;3.942;2023-07-22T07:12:16;19.60;99.90
9223;DHT22;7557;51.698;3.942;2023-07-22T07:14:43;19.50;99.90
9223;DHT22;7557;51.698;3.942;2023-07-22T07:17:11;19.50;99.90
9223;DHT22;7557;51.698;3.942;2023-07-22T07:19:38;19.60;99.90
9223;DHT22;7557;51.698;3.942;2023-07-22T07:22:06;19.60;99.90
9223;DHT22;7557;51.698;3.942;2023-07-22T07:24:33;19.60;99.90
9223;DHT22;7557;51.698;3.942;2023-07-22T07:27:02;19.70;99.90
9223;DHT22;7557;51.698;3.942;2023-07-22T07:29:29;19.70;99.90
9223;DHT22;7557;51.698;3.942;2023-07-22T07:31:58;19.80;99.90
9223;DHT22;7557;51.698;3.942;2023-07-22T07:34:26;19.70;99.90
9223;DHT22;7557;51.698;3.942;2023-07-22T07:36:53;19.80;99.90
9223;DHT22;7557;51.698;3.942;2023-07-22T07:39:20;19.80;99.90
9223;DHT22;7557;51.698;3.942;2023-07-22T07:41:48;19.90;99.90
9223;DHT22;7557;51.698;3.942;2023-07-22T07:44:17;19.90;99.90
9223;DHT22;7557;51.698;3.942;2023-07-22T07:46:45;19.90;99.90
9223;DHT22;7557;51.698;3.942;2023-07-22T07:49:12;19.90;99.90
9223;DHT22;7557;51.698;3.942;2023-07-22T07:51:40;20.10;99.90
9223;DHT22;7557;51.698;3.942;2023-07-22T07:54:08;20.30;99.90
9223;DHT22;7557;51.698;3.942;2023-07-22T07:56:36;20.60;99.90
9223;DHT22;7557;51.698;3.942;2023-07-22T07:59:05;20.90;99.90
9223;DHT22;7557;51.698;3.942;2023-07-22T08:01:36;21.00;99.90
9223;DHT22;7557;51.698;3.942;2023-07-22T08:04:07;21.00;99.90
9223;DHT22;7557;51.698;3.942;2023-07-22T08:06:34;20.90;99.90
9223;DHT22;7557;51.698;3.942;2023-07-22T08:09:03;20.90;99.90
9223;DHT22;7557;51.698;3.942;2023-07-22T08:11:31;21.00;99.90
9223;DHT22;7557;51.698;3.942;2023-07-22T08:13:59;21.20;99.90
9223;DHT22;7557;51.698;3.942;2023-07-22T08:16:27;21.30;99.90
9223;DHT22;7557;51.698;3.942;2023-07-22T08:18:56;21.40;99.90
9223;DHT22;7557;51.698;3.942;2023-07-22T08:21:24;21.60;99.90
9223;DHT22;7557;51.698;3.942;2023-07-22T08:23:51;21.70;99.90
9223;DHT22;7557;51.698;3.942;2023-07-22T08:26:20;21.90;99.90
9223;DHT22;7557;51.698;3.942;2023-07-22T08:28:47;22.00;99.90
9223;DHT22;7557;51.698;3.942;2023-07-22T08:31:15;22.10;99.90
9223;DHT22;7557;51.698;3.942;2023-07-22T08:33:42;22.20;99.90
9223;DHT22;7557;51.698;3.942;2023-07-22T08:36:12;22.20;99.90
9223;DHT22;7557;51.698;3.942;2023-07-22T08:38:40;22.10;99.90
9223;DHT22;7557;51.698;3.942;2023-07-22T08:41:07;22.10;99.90
9223;DHT22;7557;51.698;3.942;2023-07-22T08:43:35;22.10;99.90
9223;DHT22;7557;51.698;3.942;2023-07-22T08:46:05;22.20;99.90
9223;DHT22;7557;51.698;3.942;2023-07-22T08:48:34;22.20;99.90
9223;DHT22;7557;51.698;3.942;2023-07-22T08:51:06;22.40;99.90
9223;DHT22;7557;51.698;3.942;2023-07-22T08:53:35;22.40;99.90
9223;DHT22;7557;51.698;3.942;2023-07-22T08:56:04;22.50;99.90
9223;DHT22;7557;51.698;3.942;2023-07-22T08:58:32;22.60;99.90
9223;DHT22;7557;51.698;3.942;2023-07-22T09:01:02;22.80;99.40
9223;DHT22;7557;51.698;3.942;2023-07-22T09:03:29;22.90;99.10
9223;DHT22;7557;51.698;3.942;2023-07-22T09:05:57;22.90;98.80
9223;DHT22;7557;51.698;3.942;2023-07-22T09:08:24;22.80;98.60
9223;DHT22;7557;51.698;3.942;2023-07-22T09:10:53;22.80;98.60
9223;DHT22;7557;51.698;3.942;2023-07-22T09:13:21;22.80;98.30
9223;DHT22;7557;51.698;3.942;2023-07-22T09:15:49;22.90;98.60
9223;DHT22;7557;51.698;3.942;2023-07-22T09:18:18;23.00;98.40
9223;DHT22;7557;51.698;3.942;2023-07-22T09:20:45;23.10;98.00
9223;DHT22;7557;51.698;3.942;2023-07-22T09:23:13;23.10;97.80
9223;DHT22;7557;51.698;3.942;2023-07-22T09:25:42;23.20;98.10
9223;DHT22;7557;51.698;3.942;2023-07-22T09:28:11;23.40;97.80
9223;DHT22;7557;51.698;3.942;2023-07-22T09:30:39;23.50;97.50
9223;DHT22;7557;51.698;3.942;2023-07-22T09:33:19;23.60;97.30
9223;DHT22;7557;51.698;3.942;2023-07-22T09:35:48;23.70;97.10
9223;DHT22;7557;51.698;3.942;2023-07-22T09:38:22;23.70;97.00
9223;DHT22;7557;51.698;3.942;2023-07-22T09:40:50;23.80;96.90
9223;DHT22;7557;51.698;3.942;2023-07-22T09:43:19;23.80;96.70
9223;DHT22;7557;51.698;3.942;2023-07-22T09:45:47;23.90;96.70
9223;DHT22;7557;51.698;3.942;2023-07-22T09:48:15;23.90;96.60
9223;DHT22;7557;51.698;3.942;2023-07-22T09:50:42;23.90;96.20
9223;DHT22;7557;51.698;3.942;2023-07-22T09:53:15;23.80;96.00
9223;DHT22;7557;51.698;3.942;2023-07-22T09:55:42;23.80;95.90
9223;DHT22;7557;51.698;3.942;2023-07-22T09:58:11;23.80;95.90
9223;DHT22;7557;51.698;3.942;2023-07-22T10:00:47;23.60;95.80
9223;DHT22;7557;51.698;3.942;2023-07-22T10:03:16;23.50;96.00
9223;DHT22;7557;51.698;3.942;2023-07-22T10:05:48;23.40;96.10
9223;DHT22;7557;51.698;3.942;2023-07-22T10:08:19;23.50;96.20
9223;DHT22;7557;51.698;3.942;2023-07-22T10:10:48;23.50;96.00
9223;DHT22;7557;51.698;3.942;2023-07-22T10:13:19;23.50;96.10
9223;DHT22;7557;51.698;3.942;2023-07-22T10:15:48;23.50;96.00
9223;DHT22;7557;51.698;3.942;2023-07-22T10:18:16;23.50;96.00
9223;DHT22;7557;51.698;3.942;2023-07-22T10:20:46;23.50;95.90
9223;DHT22;7557;51.698;3.942;2023-07-22T10:23:15;23.50;96.20
9223;DHT22;7557;51.698;3.942;2023-07-22T10:25:43;23.40;95.40
9223;DHT22;7557;51.698;3.942;2023-07-22T10:28:11;23.20;95.50
9223;DHT22;7557;51.698;3.942;2023-07-22T10:30:40;23.10;95.70
9223;DHT22;7557;51.698;3.942;2023-07-22T10:33:11;23.00;95.60
9223;DHT22;7557;51.698;3.942;2023-07-22T10:35:42;22.70;95.80
9223;DHT22;7557;51.698;3.942;2023-07-22T10:38:11;22.40;95.90
9223;DHT22;7557;51.698;3.942;2023-07-22T10:40:46;22.10;96.40
9223;DHT22;7557;51.698;3.942;2023-07-22T10:43:16;22.00;96.40
9223;DHT22;7557;51.698;3.942;2023-07-22T10:45:51;21.90;96.50
9223;DHT22;7557;51.698;3.942;2023-07-22T10:48:24;21.80;96.60
9223;DHT22;7557;51.698;3.942;2023-07-22T10:50:53;21.50;96.80
9223;DHT22;7557;51.698;3.942;2023-07-22T10:53:28;21.30;96.80
9223;DHT22;7557;51.698;3.942;2023-07-22T10:56:07;21.20;97.10
9223;DHT22;7557;51.698;3.942;2023-07-22T10:59:05;21.10;97.30
9223;DHT22;7557;51.698;3.942;2023-07-22T11:01:37;21.20;97.40
9223;DHT22;7557;51.698;3.942;2023-07-22T11:04:14;21.00;97.30
9223;DHT22;7557;51.698;3.942;2023-07-22T11:06:55;20.90;97.40
9223;DHT22;7557;51.698;3.942;2023-07-22T11:09:39;20.90;97.50
9223;DHT22;7557;51.698;3.942;2023-07-22T11:12:10;20.80;97.60
9223;DHT22;7557;51.698;3.942;2023-07-22T11:14:39;20.80;97.90
9223;DHT22;7557;51.698;3.942;2023-07-22T11:17:08;20.80;98.10
9223;DHT22;7557;51.698;3.942;2023-07-22T11:19:38;20.80;98.10
9223;DHT22;7557;51.698;3.942;2023-07-22T11:22:07;20.80;98.20
9223;DHT22;7557;51.698;3.942;2023-07-22T11:24:35;20.80;98.10
9223;DHT22;7557;51.698;3.942;2023-07-22T11:27:04;20.70;98.00
9223;DHT22;7557;51.698;3.942;2023-07-22T11:29:32;20.70;98.20
9223;DHT22;7557;51.698;3.942;2023-07-22T11:31:59;20.60;98.20
9223;DHT22;7557;51.698;3.942;2023-07-22T11:34:27;20.70;98.30
9223;DHT22;7557;51.698;3.942;2023-07-22T11:36:56;20.70;98.40
9223;DHT22;7557;51.698;3.942;2023-07-22T11:39:25;20.70;98.50
9223;DHT22;7557;51.698;3.942;2023-07-22T11:41:53;20.80;98.60
9223;DHT22;7557;51.698;3.942;2023-07-22T11:44:22;20.80;98.70
9223;DHT22;7557;51.698;3.942;2023-07-22T11:46:53;20.80;98.70
9223;DHT22;7557;51.698;3.942;2023-07-22T11:49:29;20.80;98.70
9223;DHT22;7557;51.698;3.942;2023-07-22T11:51:59;20.80;98.60
9223;DHT22;7557;51.698;3.942;2023-07-22T11:54:28;20.80;98.80
9223;DHT22;7557;51.698;3.942;2023-07-22T11:56:56;20.90;99.20
9223;DHT22;7557;51.698;3.942;2023-07-22T11:59:34;21.10;98.90
9223;DHT22;7557;51.698;3.942;2023-07-22T12:02:01;21.20;98.60
9223;DHT22;7557;51.698;3.942;2023-07-22T12:04:30;21.20;98.40
9223;DHT22;7557;51.698;3.942;2023-07-22T12:07:01;21.10;98.30
9223;DHT22;7557;51.698;3.942;2023-07-22T12:09:30;21.10;98.20
9223;DHT22;7557;51.698;3.942;2023-07-22T12:11:57;21.00;98.10
9223;DHT22;7557;51.698;3.942;2023-07-22T12:14:32;20.80;97.90
9223;DHT22;7557;51.698;3.942;2023-07-22T12:17:01;20.80;98.10
9223;DHT22;7557;51.698;3.942;2023-07-22T12:19:29;20.70;98.20
9223;DHT22;7557;51.698;3.942;2023-07-22T12:21:57;20.80;98.40
9223;DHT22;7557;51.698;3.942;2023-07-22T12:24:27;20.80;98.20
9223;DHT22;7557;51.698;3.942;2023-07-22T12:26:54;20.90;98.40
9223;DHT22;7557;51.698;3.942;2023-07-22T12:29:21;21.00;98.80
9223;DHT22;7557;51.698;3.942;2023-07-22T12:31:49;21.30;98.50
9223;DHT22;7557;51.698;3.942;2023-07-22T12:34:17;21.40;98.40
9223;DHT22;7557;51.698;3.942;2023-07-22T12:36:44;21.50;98.80
9223;DHT22;7557;51.698;3.942;2023-07-22T12:39:11;21.60;98.50
9223;DHT22;7557;51.698;3.942;2023-07-22T12:41:40;21.70;98.50
9223;DHT22;7557;51.698;3.942;2023-07-22T12:44:07;21.70;98.60
9223;DHT22;7557;51.698;3.942;2023-07-22T12:46:35;21.80;98.50
9223;DHT22;7557;51.698;3.942;2023-07-22T12:49:02;21.70;98.30
9223;DHT22;7557;51.698;3.942;2023-07-22T12:51:31;21.70;98.40
9223;DHT22;7557;51.698;3.942;2023-07-22T12:53:59;21.70;98.50
9223;DHT22;7557;51.698;3.942;2023-07-22T12:56:26;21.60;98.20
9223;DHT22;7557;51.698;3.942;2023-07-22T12:58:56;21.50;98.40
9223;DHT22;7557;51.698;3.942;2023-07-22T13:01:23;21.40;98.70
9223;DHT22;7557;51.698;3.942;2023-07-22T13:03:51;21.40;98.90
9223;DHT22;7557;51.698;3.942;2023-07-22T13:06:18;21.50;98.80
9223;DHT22;7557;51.698;3.942;2023-07-22T13:08:45;21.40;98.90
9223;DHT22;7557;51.698;3.942;2023-07-22T13:11:13;21.40;99.00
9223;DHT22;7557;51.698;3.942;2023-07-22T13:13:40;21.50;99.10
9223;DHT22;7557;51.698;3.942;2023-07-22T13:16:09;21.50;98.90
9223;DHT22;7557;51.698;3.942;2023-07-22T13:18:36;21.40;98.90
9223;DHT22;7557;51.698;3.942;2023-07-22T13:21:05;21.30;99.00
9223;DHT22;7557;51.698;3.942;2023-07-22T13:23:33;21.20;99.10
9223;DHT22;7557;51.698;3.942;2023-07-22T13:26:01;21.10;99.30
9223;DHT22;7557;51.698;3.942;2023-07-22T13:28:28;21.10;99.30
9223;DHT22;7557;51.698;3.942;2023-07-22T13:30:55;21.10;99.50
9223;DHT22;7557;51.698;3.942;2023-07-22T13:33:24;21.00;99.60
9223;DHT22;7557;51.698;3.942;2023-07-22T13:35:51;21.10;99.80
9223;DHT22;7557;51.698;3.942;2023-07-22T13:38:19;21.10;99.70
9223;DHT22;7557;51.698;3.942;2023-07-22T13:40:46;21.00;99.70
9223;DHT22;7557;51.698;3.942;2023-07-22T13:43:14;20.90;99.90
9223;DHT22;7557;51.698;3.942;2023-07-22T13:45:41;20.90;99.90
9223;DHT22;7557;51.698;3.942;2023-07-22T13:48:08;21.00;99.90
9223;DHT22;7557;51.698;3.942;2023-07-22T13:50:39;21.00;99.90
9223;DHT22;7557;51.698;3.942;2023-07-22T13:53:07;21.10;99.90
9223;DHT22;7557;51.698;3.942;2023-07-22T13:55:34;21.20;99.90
9223;DHT22;7557;51.698;3.942;2023-07-22T13:58:02;21.20;99.90
9223;DHT22;7557;51.698;3.942;2023-07-22T14:00:29;21.20;99.90
9223;DHT22;7557;51.698;3.942;2023-07-22T14:02:57;21.20;99.70
9223;DHT22;7557;51.698;3.942;2023-07-22T14:05:24;21.20;99.70
9223;DHT22;7557;51.698;3.942;2023-07-22T14:07:53;21.20;99.50
9223;DHT22;7557;51.698;3.942;2023-07-22T14:10:21;21.30;99.40
9223;DHT22;7557;51.698;3.942;2023-07-22T14:12:48;21.30;99.30
9223;DHT22;7557;51.698;3.942;2023-07-22T14:15:16;21.40;99.50
9223;DHT22;7557;51.698;3.942;2023-07-22T14:17:44;21.50;99.30
9223;DHT22;7557;51.698;3.942;2023-07-22T14:20:11;21.60;99.10
9223;DHT22;7557;51.698;3.942;2023-07-22T14:22:40;21.70;98.70
9223;DHT22;7557;51.698;3.942;2023-07-22T14:25:10;21.70;98.50
9223;DHT22;7557;51.698;3.942;2023-07-22T14:27:38;21.70;98.50
9223;DHT22;7557;51.698;3.942;2023-07-22T14:30:07;21.70;98.40
9223;DHT22;7557;51.698;3.942;2023-07-22T14:32:34;21.80;98.30
9223;DHT22;7557;51.698;3.942;2023-07-22T14:35:03;21.80;98.30
9223;DHT22;7557;51.698;3.942;2023-07-22T14:37:30;21.80;98.40
9223;DHT22;7557;51.698;3.942;2023-07-22T14:39:59;21.80;98.40
9223;DHT22;7557;51.698;3.942;2023-07-22T14:42:27;21.80;98.50
9223;DHT22;7557;51.698;3.942;2023-07-22T14:44:55;21.80;98.60
9223;DHT22;7557;51.698;3.942;2023-07-22T14:47:23;21.70;98.60
9223;DHT22;7557;51.698;3.942;2023-07-22T14:49:51;21.80;98.90
9223;DHT22;7557;51.698;3.942;2023-07-22T14:52:18;21.80;98.80
9223;DHT22;7557;51.698;3.942;2023-07-22T14:54:46;21.80;98.60
9223;DHT22;7557;51.698;3.942;2023-07-22T14:57:13;21.80;98.60
9223;DHT22;7557;51.698;3.942;2023-07-22T14:59:42;21.80;98.60
9223;DHT22;7557;51.698;3.942;2023-07-22T15:02:10;21.80;98.70
9223;DHT22;7557;51.698;3.942;2023-07-22T15:04:37;21.80;98.70
9223;DHT22;7557;51.698;3.942;2023-07-22T15:07:05;21.80;98.80
9223;DHT22;7557;51.698;3.942;2023-07-22T15:09:32;21.70;98.80
9223;DHT22;7557;51.698;3.942;2023-07-22T15:11:59;21.70;98.90
9223;DHT22;7557;51.698;3.942;2023-07-22T15:14:27;21.70;99.20
9223;DHT22;7557;51.698;3.942;2023-07-22T15:16:56;21.60;99.40
9223;DHT22;7557;51.698;3.942;2023-07-22T15:19:23;21.60;99.30
9223;DHT22;7557;51.698;3.942;2023-07-22T15:21:51;21.50;99.40
9223;DHT22;7557;51.698;3.942;2023-07-22T15:24:19;21.40;99.60
9223;DHT22;7557;51.698;3.942;2023-07-22T15:26:47;21.40;99.60
9223;DHT22;7557;51.698;3.942;2023-07-22T15:29:14;21.40;99.60
9223;DHT22;7557;51.698;3.942;2023-07-22T15:31:41;21.40;99.40
9223;DHT22;7557;51.698;3.942;2023-07-22T15:34:10;21.30;99.60
9223;DHT22;7557;51.698;3.942;2023-07-22T15:36:37;21.30;99.60
9223;DHT22;7557;51.698;3.942;2023-07-22T15:39:05;21.30;99.60
9223;DHT22;7557;51.698;3.942;2023-07-22T15:41:34;21.30;99.70
9223;DHT22;7557;51.698;3.942;2023-07-22T15:44:01;21.20;99.70
9223;DHT22;7557;51.698;3.942;2023-07-22T15:46:28;21.30;99.90
9223;DHT22;7557;51.698;3.942;2023-07-22T15:48:55;21.30;99.90
9223;DHT22;7557;51.698;3.942;2023-07-22T15:51:24;21.30;99.90
9223;DHT22;7557;51.698;3.942;2023-07-22T15:53:52;21.30;99.90
9223;DHT22;7557;51.698;3.942;2023-07-22T15:56:19;21.30;99.90
9223;DHT22;7557;51.698;3.942;2023-07-22T15:58:46;21.30;99.70
9223;DHT22;7557;51.698;3.942;2023-07-22T16:01:14;21.40;99.60
9223;DHT22;7557;51.698;3.942;2023-07-22T16:03:41;21.40;99.60
9223;DHT22;7557;51.698;3.942;2023-07-22T16:06:08;21.30;99.60
9223;DHT22;7557;51.698;3.942;2023-07-22T16:08:38;21.30;99.70
9223;DHT22;7557;51.698;3.942;2023-07-22T16:11:05;21.30;99.80
9223;DHT22;7557;51.698;3.942;2023-07-22T16:13:33;21.20;99.90